Gordonsville, Virginia
Current Conditions -  °F | °C
As of 5:35 PM on Monday 20 Oct 2014 (Local Time) from KGVE Reporting Station
Clear Clear  
Wind Chill: 64°   Ceiling: Unl
Heat Index: 64°   Visibility: 10mi
Dew Point: 48°   Wind: 6mph
Humidity: 57%   Direction: 190°S
Pressure: 29.93"   Gusts: NA
Location:  38.14°N, 78.19°W
Report Text: KGVE 202135Z AUTO 19005KT 10SM CLR 18/09 A2993 RMK AO1 T01760090
Loading
Personal Weather Stations






























Interactive Weather Map
Tropical Storm Tracking
New forecast layout! Learn more

10-Day Weather Forecast

Advertisements
Track Severe Weather on mobile